Terminal Aerodrome Forecast
Issued by NWS Des Moines, IA

Home | Current Version | Previous Version | Text Only | Print | Product List | Glossary On
Versions: 1 2 3 4 5 6 7 8 9 10 11 12 13 14 15 16 17 18 19 20 21 22 23 24 25 26 27 28 29 30 31 32 33 34 35 36 37 38 39 40 41 42 43 44 45 46
000
FTUS43 KDMX 242332
TAFDSM
TAF
KDSM 242332Z 2500/2524 09011G19KT P6SM OVC008
      TEMPO 2500/2504 6SM -SNRA OVC006
     FM250400 07010KT 3SM -RA BR OVC003
     FM250800 01008KT 1SM -RA BR OVC003
     FM251500 32012KT 2SM -SN BR OVC003
     FM251900 31017G24KT 1 1/2SM -SN OVC007
     FM252100 31017G23KT 1SM -SN BLSN OVC007
     FM252300 32016G23KT P6SM OVC007=

USA.gov is the U.S. government's official web portal to all federal, state and local government web resources and services.